Time;durP1;ratioP1;P1;durP2;ratioP2;P2;SDS_P1;SDS_P2;PMS_P1;PMS_P2;Temp;Humidity;BMP_temperature;BMP_pressure;BME280_temperature;BME280_humidity;BME280_pressure;Samples;Min_cycle;Max_cycle;Signal;HPM_P1;HPM_P2
2022/03/04 00:01:17;;;;;;;18.23;10.43;;;2.40;99.90;;;;;;5094136;28;20032;-92
2022/03/04 00:03:44;;;;;;;19.17;10.23;;;2.40;99.90;;;;;;5092990;28;20025;-91
2022/03/04 00:06:10;;;;;;;18.92;10.45;;;2.40;99.90;;;;;;5094028;28;20028;-92
2022/03/04 00:08:36;;;;;;;17.40;10.52;;;2.40;99.90;;;;;;5092882;28;20429;-92
2022/03/04 00:11:02;;;;;;;19.10;11.02;;;2.40;99.90;;;;;;5094233;28;20036;-93
2022/03/04 00:13:32;;;;;;;18.98;10.75;;;2.40;99.90;;;;;;5096575;28;20520;-94
2022/03/04 00:15:58;;;;;;;18.15;10.68;;;2.40;99.90;;;;;;5096762;28;20059;-93
2022/03/04 00:18:26;;;;;;;19.27;10.05;;;2.40;99.90;;;;;;5096779;28;20127;-93
2022/03/04 00:20:51;;;;;;;18.45;10.40;;;2.40;99.90;;;;;;5096791;28;20020;-93
2022/03/04 00:23:18;;;;;;;21.02;10.77;;;2.30;99.90;;;;;;5096738;28;20386;-93
2022/03/04 00:25:45;;;;;;;22.30;10.68;;;2.30;99.90;;;;;;5096421;28;20044;-93
2022/03/04 00:28:11;;;;;;;19.33;10.27;;;2.30;99.90;;;;;;5096632;28;20397;-93
2022/03/04 00:30:37;;;;;;;16.35;9.40;;;2.30;99.90;;;;;;5096789;28;20021;-93
2022/03/04 00:33:02;;;;;;;16.65;9.13;;;2.30;99.90;;;;;;5096501;28;20020;-92
2022/03/04 00:35:28;;;;;;;17.65;10.25;;;2.40;99.90;;;;;;5098078;28;20055;-93
2022/03/04 00:37:54;;;;;;;21.10;9.93;;;2.40;99.90;;;;;;5096389;28;20085;-92
2022/03/04 00:40:20;;;;;;;19.95;10.68;;;2.40;99.90;;;;;;5096442;28;20454;-93
2022/03/04 00:42:46;;;;;;;20.45;11.35;;;2.40;99.90;;;;;;5096304;28;20070;-93
2022/03/04 00:45:12;;;;;;;17.35;9.98;;;2.30;99.90;;;;;;5096361;28;20066;-92
2022/03/04 00:47:38;;;;;;;17.70;10.32;;;2.30;99.90;;;;;;5096120;28;20055;-92
2022/03/04 00:50:05;;;;;;;18.45;9.82;;;2.30;99.90;;;;;;5096290;28;20462;-92
2022/03/04 00:52:31;;;;;;;17.70;10.30;;;2.30;99.90;;;;;;5096181;28;20119;-93
2022/03/04 00:54:57;;;;;;;17.85;10.82;;;2.30;99.90;;;;;;5096364;28;20051;-92
2022/03/04 00:57:23;;;;;;;19.63;10.48;;;2.30;99.90;;;;;;5096066;28;20636;-92
2022/03/04 00:59:49;;;;;;;20.55;10.88;;;2.30;99.90;;;;;;5096242;28;20115;-92
2022/03/04 01:02:14;;;;;;;17.65;9.75;;;2.30;99.90;;;;;;5096197;28;20024;-93
2022/03/04 01:04:40;;;;;;;15.50;9.77;;;2.30;99.90;;;;;;5095940;28;20110;-92
2022/03/04 01:07:06;;;;;;;20.33;10.38;;;2.30;99.90;;;;;;5096000;28;20074;-92
2022/03/04 01:09:32;;;;;;;18.98;10.90;;;2.30;99.90;;;;;;5097181;28;20020;-93
2022/03/04 01:11:58;;;;;;;16.52;9.27;;;2.30;99.90;;;;;;5096181;28;20024;-92
2022/03/04 01:14:36;;;;;;;14.82;8.82;;;2.30;99.90;;;;;;5096052;28;20020;-92
2022/03/04 01:17:02;;;;;;;16.40;9.85;;;2.30;99.90;;;;;;5096051;28;20031;-93
2022/03/04 01:19:28;;;;;;;15.85;9.25;;;2.30;99.90;;;;;;5095317;28;20024;-94
2022/03/04 01:21:53;;;;;;;16.55;9.60;;;2.30;99.90;;;;;;5095729;28;20158;-93
2022/03/04 01:24:19;;;;;;;18.35;9.40;;;2.30;99.90;;;;;;5095311;28;20047;-93
2022/03/04 01:26:45;;;;;;;15.80;9.27;;;2.30;99.90;;;;;;5095370;28;20044;-92
2022/03/04 01:29:11;;;;;;;16.40;9.32;;;2.20;99.90;;;;;;5095485;28;20086;-93
2022/03/04 01:31:36;;;;;;;17.48;9.98;;;2.20;99.90;;;;;;5095597;28;20016;-92
2022/03/04 01:34:02;;;;;;;14.13;8.85;;;2.20;99.90;;;;;;5095386;28;20047;-92
2022/03/04 01:36:33;;;;;;;15.27;9.18;;;2.20;99.90;;;;;;5095690;28;20056;-92
2022/03/04 01:38:59;;;;;;;16.77;9.27;;;2.20;99.90;;;;;;5095303;28;20024;-91
2022/03/04 01:41:24;;;;;;;15.15;9.02;;;2.20;99.90;;;;;;5095312;28;20024;-93
2022/03/04 01:43:50;;;;;;;19.80;8.82;;;2.20;99.90;;;;;;5095046;28;20122;-91
2022/03/04 01:46:17;;;;;;;15.70;8.57;;;2.20;99.90;;;;;;5095177;28;20051;-91
2022/03/04 01:48:45;;;;;;;16.13;9.05;;;2.20;99.90;;;;;;5094993;28;20023;-92
2022/03/04 01:51:11;;;;;;;15.52;9.15;;;2.20;99.90;;;;;;5095076;28;20020;-92
2022/03/04 01:53:39;;;;;;;18.40;9.73;;;2.30;99.90;;;;;;5096502;28;20024;-92
2022/03/04 01:56:05;;;;;;;19.35;9.20;;;2.30;99.90;;;;;;5095577;28;20024;-93
2022/03/04 01:58:31;;;;;;;15.07;8.70;;;2.20;99.90;;;;;;5095092;28;20047;-92
2022/03/04 02:00:57;;;;;;;18.67;10.15;;;2.20;99.90;;;;;;5095183;28;20024;-91
2022/03/04 02:03:24;;;;;;;17.20;9.30;;;2.20;99.90;;;;;;5094743;28;20546;-91
2022/03/04 02:05:50;;;;;;;16.05;9.10;;;2.20;99.90;;;;;;5095781;28;20024;-91
2022/03/04 02:08:16;;;;;;;15.48;8.85;;;2.20;99.90;;;;;;5095752;28;20493;-91
2022/03/04 02:10:42;;;;;;;17.17;9.60;;;2.20;99.90;;;;;;5095550;28;20463;-91
2022/03/04 02:13:08;;;;;;;15.48;8.68;;;2.20;99.90;;;;;;5095982;28;20079;-91
2022/03/04 02:15:33;;;;;;;18.48;10.75;;;2.30;99.90;;;;;;5095881;28;20031;-92
2022/03/04 02:17:59;;;;;;;16.88;9.68;;;2.30;99.90;;;;;;5095541;28;20077;-91
2022/03/04 02:20:30;;;;;;;17.80;10.10;;;2.30;99.90;;;;;;5094726;28;20095;-92
2022/03/04 02:22:56;;;;;;;18.50;10.27;;;2.20;99.90;;;;;;5095509;28;20471;-93
2022/03/04 02:25:21;;;;;;;17.42;9.82;;;2.20;99.90;;;;;;5095439;28;20047;-92
2022/03/04 02:27:48;;;;;;;16.98;9.95;;;2.20;99.90;;;;;;5095732;28;20024;-92
2022/03/04 02:30:14;;;;;;;18.33;10.77;;;2.20;99.90;;;;;;5094384;28;20110;-92
2022/03/04 02:32:40;;;;;;;19.65;10.68;;;2.20;99.90;;;;;;5094343;28;20047;-92
2022/03/04 02:35:05;;;;;;;18.05;10.05;;;2.20;99.90;;;;;;5093715;28;20027;-92
2022/03/04 02:37:31;;;;;;;17.23;9.43;;;2.20;99.90;;;;;;5094305;28;20024;-92
2022/03/04 02:39:57;;;;;;;15.70;9.35;;;2.20;99.90;;;;;;5094202;28;20035;-91
2022/03/04 02:42:23;;;;;;;14.70;8.75;;;2.20;99.90;;;;;;5094237;28;20127;-92
2022/03/04 02:44:49;;;;;;;13.60;8.30;;;2.20;99.90;;;;;;5093825;28;20028;-92
2022/03/04 02:47:14;;;;;;;17.50;9.43;;;2.30;99.90;;;;;;5093965;28;20024;-92
2022/03/04 02:49:40;;;;;;;21.15;10.05;;;2.20;99.90;;;;;;5093941;28;20020;-92
2022/03/04 02:52:06;;;;;;;17.17;9.60;;;2.20;99.90;;;;;;5094113;28;20028;-91
2022/03/04 02:54:32;;;;;;;16.35;9.30;;;2.20;99.90;;;;;;5093837;28;20055;-89
2022/03/04 02:56:57;;;;;;;17.52;9.90;;;2.20;99.90;;;;;;5094090;28;20571;-91
2022/03/04 02:59:23;;;;;;;18.73;9.73;;;2.20;99.90;;;;;;5093871;28;20371;-91
2022/03/04 03:01:49;;;;;;;19.77;9.98;;;2.20;99.90;;;;;;5095185;28;20103;-91
2022/03/04 03:04:15;;;;;;;18.75;9.65;;;2.20;99.90;;;;;;5093766;28;20430;-92
2022/03/04 03:06:40;;;;;;;17.70;9.40;;;2.20;99.90;;;;;;5093672;28;20081;-92
2022/03/04 03:09:06;;;;;;;19.23;9.88;;;2.20;99.90;;;;;;5094807;28;20073;-92
2022/03/04 03:11:32;;;;;;;17.20;9.80;;;2.10;99.90;;;;;;5093685;28;20057;-91
2022/03/04 03:13:58;;;;;;;16.77;9.55;;;2.10;99.90;;;;;;5093654;28;20024;-91
2022/03/04 03:16:24;;;;;;;16.92;9.32;;;2.10;99.90;;;;;;5093727;28;20028;-92
2022/03/04 03:18:49;;;;;;;17.60;9.27;;;2.10;99.90;;;;;;5093516;28;20524;-91
2022/03/04 03:21:15;;;;;;;15.63;9.02;;;2.20;99.90;;;;;;5093614;28;20031;-91
2022/03/04 03:23:41;;;;;;;16.90;9.65;;;2.20;99.90;;;;;;5093755;28;20024;-91
2022/03/04 03:26:06;;;;;;;17.23;9.88;;;2.10;99.90;;;;;;5093257;28;20583;-91
2022/03/04 03:28:32;;;;;;;16.48;9.45;;;2.10;99.90;;;;;;5093626;28;20027;-91
2022/03/04 03:30:58;;;;;;;20.90;10.43;;;2.10;99.90;;;;;;5093423;28;20356;-91
2022/03/04 03:33:24;;;;;;;18.75;10.05;;;2.10;99.90;;;;;;5093706;28;20028;-91
2022/03/04 03:35:54;;;;;;;20.27;9.82;;;2.10;99.90;;;;;;5093497;28;20028;-91
2022/03/04 03:38:24;;;;;;;18.20;9.80;;;2.10;99.90;;;;;;5093380;28;20138;-92
2022/03/04 03:40:50;;;;;;;18.77;9.85;;;2.10;99.90;;;;;;5077470;28;20035;-92
2022/03/04 03:43:16;;;;;;;18.05;9.85;;;2.10;99.90;;;;;;5076607;28;20035;-91
2022/03/04 03:45:42;;;;;;;17.83;9.82;;;2.10;99.90;;;;;;5093614;28;20028;-92
2022/03/04 03:48:10;;;;;;;21.23;10.02;;;2.20;99.90;;;;;;5097561;28;20035;-92
2022/03/04 03:50:38;;;;;;;20.50;10.98;;;2.00;99.90;;;;;;5080685;28;20051;-92
2022/03/04 03:53:06;;;;;;;19.10;10.43;;;2.00;99.90;;;;;;5080905;28;20085;-91
2022/03/04 03:55:32;;;;;;;16.95;9.68;;;2.00;99.90;;;;;;5097948;28;20542;-91
2022/03/04 03:57:59;;;;;;;16.95;9.15;;;2.00;99.90;;;;;;5080430;28;20032;-91
2022/03/04 04:00:25;;;;;;;19.02;10.60;;;2.10;99.90;;;;;;5097024;28;20077;-91
2022/03/04 04:02:51;;;;;;;21.17;10.38;;;2.00;99.90;;;;;;5097339;28;20078;-91
2022/03/04 04:05:17;;;;;;;22.05;9.63;;;2.00;99.90;;;;;;5098077;28;20482;-91
2022/03/04 04:07:43;;;;;;;19.13;10.00;;;2.00;99.90;;;;;;5097062;28;20481;-91
2022/03/04 04:10:09;;;;;;;16.95;9.38;;;2.00;99.90;;;;;;5096587;28;20020;-90
2022/03/04 04:12:35;;;;;;;18.13;10.68;;;2.00;99.90;;;;;;5098143;28;20048;-90
2022/03/04 04:15:03;;;;;;;19.52;10.32;;;2.00;99.90;;;;;;5079912;28;20030;-90
2022/03/04 04:17:29;;;;;;;17.60;9.65;;;2.00;99.90;;;;;;5096694;28;20121;-90
2022/03/04 04:19:55;;;;;;;19.98;10.13;;;1.90;99.90;;;;;;5096538;28;20433;-90
2022/03/04 04:22:22;;;;;;;17.13;10.13;;;1.90;99.90;;;;;;5097835;28;20032;-91
2022/03/04 04:24:49;;;;;;;19.08;10.18;;;1.90;99.90;;;;;;5096471;28;20052;-90
2022/03/04 04:27:15;;;;;;;20.17;9.77;;;1.80;99.90;;;;;;5079870;28;20463;-90
2022/03/04 04:29:41;;;;;;;18.90;10.38;;;1.80;99.90;;;;;;5096527;28;20039;-90
2022/03/04 04:32:07;;;;;;;16.48;9.23;;;1.80;99.90;;;;;;5096545;28;20023;-91
2022/03/04 04:34:33;;;;;;;19.80;10.65;;;1.80;99.90;;;;;;5097167;28;20032;-90
2022/03/04 04:36:59;;;;;;;17.50;9.85;;;1.80;99.90;;;;;;5097490;28;20077;-89
2022/03/04 04:39:26;;;;;;;17.35;10.15;;;1.80;99.90;;;;;;5096332;28;20036;-90
2022/03/04 04:41:53;;;;;;;17.80;10.95;;;1.80;99.90;;;;;;5097180;28;20107;-90
2022/03/04 04:44:19;;;;;;;18.02;10.45;;;1.80;99.90;;;;;;5079638;28;20024;-90
2022/03/04 04:46:45;;;;;;;20.35;11.25;;;1.80;99.90;;;;;;5096339;28;20474;-90
2022/03/04 04:49:11;;;;;;;19.02;10.25;;;1.90;99.90;;;;;;5097547;28;20039;-90
2022/03/04 04:51:37;;;;;;;20.60;11.00;;;1.90;99.90;;;;;;5096814;28;20036;-90
2022/03/04 04:54:05;;;;;;;18.95;10.48;;;2.00;99.90;;;;;;5096330;28;20470;-90
2022/03/04 04:56:32;;;;;;;20.55;10.85;;;2.00;99.90;;;;;;5113128;28;20429;-90
2022/03/04 04:58:58;;;;;;;18.60;10.45;;;2.00;99.90;;;;;;5078635;28;20474;-90
2022/03/04 05:01:25;;;;;;;21.52;10.77;;;2.00;99.90;;;;;;5096329;28;20101;-90
2022/03/04 05:03:50;;;;;;;18.30;10.82;;;2.00;99.90;;;;;;5095730;28;20024;-90
2022/03/04 05:06:17;;;;;;;22.30;11.65;;;2.00;99.90;;;;;;5096913;28;20108;-90
2022/03/04 05:08:44;;;;;;;19.38;11.00;;;2.00;99.90;;;;;;5096073;28;20038;-90
2022/03/04 05:11:11;;;;;;;23.15;11.40;;;2.00;99.90;;;;;;5095496;28;20099;-91
2022/03/04 05:13:38;;;;;;;21.70;11.50;;;2.00;99.90;;;;;;5096587;28;20089;-91
2022/03/04 05:16:05;;;;;;;21.13;11.23;;;2.00;99.90;;;;;;5095224;28;20027;-91
2022/03/04 05:18:32;;;;;;;18.50;10.30;;;2.00;99.90;;;;;;5078809;28;20043;-91
2022/03/04 05:20:59;;;;;;;19.15;10.88;;;2.10;99.90;;;;;;5078604;28;20028;-91
2022/03/04 05:26:11;;;;;;;22.70;11.13;;;2.10;99.90;;;;;;5096499;28;20135;-92
2022/03/04 05:28:40;;;;;;;21.15;10.95;;;2.20;99.90;;;;;;5096497;28;20115;-90
2022/03/04 05:31:06;;;;;;;17.65;10.00;;;2.20;99.90;;;;;;5078831;28;20394;-92
2022/03/04 05:33:33;;;;;;;21.05;10.60;;;2.20;99.90;;;;;;5095012;28;20020;-92
2022/03/04 05:36:01;;;;;;;20.40;10.88;;;2.20;99.90;;;;;;5094723;28;20027;-91
2022/03/04 05:38:28;;;;;;;18.48;10.75;;;2.20;99.90;;;;;;5095422;28;20035;-91
2022/03/04 05:40:54;;;;;;;23.08;11.88;;;2.20;99.90;;;;;;5077973;28;20414;-91
2022/03/04 05:43:20;;;;;;;21.27;11.18;;;2.20;99.90;;;;;;5080670;28;20067;-91
2022/03/04 05:45:47;;;;;;;23.67;10.85;;;2.20;99.90;;;;;;5095090;28;20074;-91
2022/03/04 05:48:13;;;;;;;19.45;11.10;;;2.20;99.90;;;;;;5078114;28;20031;-91
2022/03/04 05:50:39;;;;;;;19.77;10.93;;;2.30;99.90;;;;;;5095025;28;20020;-91
2022/03/04 05:53:04;;;;;;;18.58;11.30;;;2.30;99.90;;;;;;5094655;28;20433;-92
2022/03/04 05:55:31;;;;;;;20.88;11.15;;;2.30;99.90;;;;;;5093509;28;20024;-91
2022/03/04 05:57:57;;;;;;;19.25;11.50;;;2.30;99.90;;;;;;5094335;28;20028;-91
2022/03/04 06:00:23;;;;;;;27.45;14.15;;;2.30;99.90;;;;;;5094435;28;20084;-91
2022/03/04 06:02:49;;;;;;;30.13;13.50;;;2.30;99.90;;;;;;5093855;28;20036;-90
2022/03/04 06:05:15;;;;;;;27.52;12.60;;;2.30;99.90;;;;;;5093833;28;20024;-92
2022/03/04 06:07:41;;;;;;;57.72;21.95;;;2.30;99.90;;;;;;5076911;28;20470;-94
2022/03/04 06:10:07;;;;;;;191.30;59.88;;;2.30;99.90;;;;;;5078114;28;20024;-91
2022/03/04 06:12:34;;;;;;;107.95;36.83;;;2.30;99.90;;;;;;5094178;28;20055;-91
2022/03/04 06:15:00;;;;;;;70.50;27.83;;;2.30;99.90;;;;;;5076920;28;20032;-93
2022/03/04 06:17:28;;;;;;;33.95;16.05;;;2.40;99.90;;;;;;5093543;28;20386;-93
2022/03/04 06:19:54;;;;;;;90.03;38.08;;;2.40;99.90;;;;;;5093733;28;20028;-93
2022/03/04 06:22:21;;;;;;;91.97;42.15;;;2.40;99.90;;;;;;5076740;28;20053;-93
2022/03/04 06:24:47;;;;;;;34.78;19.15;;;2.50;99.90;;;;;;5077100;28;20052;-95
2022/03/04 06:27:15;;;;;;;23.48;12.75;;;2.50;99.90;;;;;;5094555;28;20110;-93
2022/03/04 06:29:42;;;;;;;22.67;12.10;;;2.50;99.90;;;;;;5093597;28;20024;-93
2022/03/04 06:32:09;;;;;;;23.17;12.93;;;2.60;99.90;;;;;;5094835;28;20470;-92
2022/03/04 06:34:35;;;;;;;27.02;14.15;;;2.60;99.90;;;;;;5093599;28;20032;-92
2022/03/04 06:37:01;;;;;;;33.60;16.00;;;2.70;99.90;;;;;;5076660;28;20032;-93
2022/03/04 06:39:26;;;;;;;33.55;12.90;;;2.60;99.90;;;;;;5076347;28;20039;-93
2022/03/04 06:41:53;;;;;;;28.30;13.88;;;2.70;99.90;;;;;;5094613;28;20032;-93
2022/03/04 06:44:19;;;;;;;27.13;14.55;;;2.70;99.90;;;;;;5076252;28;20031;-93
2022/03/04 06:46:45;;;;;;;27.80;15.60;;;2.80;99.90;;;;;;5093416;28;20417;-93
2022/03/04 06:49:12;;;;;;;34.13;18.02;;;2.80;99.90;;;;;;5093625;28;20078;-93
2022/03/04 06:51:38;;;;;;;33.67;17.33;;;2.80;99.90;;;;;;5093160;28;20538;-93
2022/03/04 06:54:05;;;;;;;32.92;17.48;;;2.80;99.90;;;;;;5093026;28;20116;-92
2022/03/04 06:56:31;;;;;;;31.35;16.73;;;2.80;99.90;;;;;;5093206;28;20047;-92
2022/03/04 06:58:58;;;;;;;36.08;18.30;;;2.90;99.90;;;;;;5076272;28;20058;-92
2022/03/04 07:01:25;;;;;;;29.00;15.43;;;2.90;99.90;;;;;;5093012;28;20036;-92
2022/03/04 07:03:52;;;;;;;33.78;16.05;;;3.00;99.90;;;;;;5093521;28;20062;-92
2022/03/04 07:06:18;;;;;;;30.27;15.57;;;3.00;99.90;;;;;;5075976;28;20031;-92
2022/03/04 07:08:44;;;;;;;36.40;18.10;;;3.00;99.90;;;;;;5093502;28;20075;-93
2022/03/04 07:11:12;;;;;;;47.17;22.33;;;3.00;99.90;;;;;;5093459;28;20490;-93
2022/03/04 07:13:39;;;;;;;34.35;17.75;;;3.10;99.90;;;;;;5076266;28;20135;-92
2022/03/04 07:16:05;;;;;;;44.17;22.55;;;3.00;99.90;;;;;;5092478;28;20090;-92
2022/03/04 07:18:32;;;;;;;61.00;31.70;;;3.00;99.90;;;;;;5091743;28;20398;-94
2022/03/04 07:20:59;;;;;;;62.65;33.40;;;3.10;99.90;;;;;;5091868;28;20051;-93
2022/03/04 07:23:25;;;;;;;49.13;27.73;;;3.10;99.90;;;;;;5095692;28;20035;-93
2022/03/04 07:25:52;;;;;;;37.45;20.80;;;3.20;99.90;;;;;;5095163;28;20043;-93
2022/03/04 07:28:20;;;;;;;31.75;17.73;;;3.30;99.90;;;;;;5093381;28;20525;-93
2022/03/04 07:30:48;;;;;;;35.53;17.17;;;3.30;99.90;;;;;;5093341;28;20031;-92
2022/03/04 07:33:13;;;;;;;31.80;16.73;;;3.30;99.90;;;;;;5075679;28;20032;-92
2022/03/04 07:35:45;;;;;;;29.77;16.70;;;3.30;99.90;;;;;;5075320;28;20051;-93
2022/03/04 07:38:12;;;;;;;29.58;15.43;;;3.30;99.90;;;;;;5076444;28;20056;-92
2022/03/04 07:40:38;;;;;;;30.80;16.15;;;3.40;99.90;;;;;;5075969;28;20036;-92
2022/03/04 07:43:04;;;;;;;30.40;16.23;;;3.40;99.90;;;;;;5092065;28;20031;-92
2022/03/04 07:45:30;;;;;;;30.88;15.93;;;3.50;99.90;;;;;;5092001;28;20024;-92
2022/03/04 07:47:55;;;;;;;27.15;15.30;;;3.50;99.90;;;;;;5075640;28;20092;-91
2022/03/04 07:50:21;;;;;;;29.10;15.93;;;3.60;99.90;;;;;;5092420;28;20024;-93
2022/03/04 07:52:47;;;;;;;32.53;16.08;;;3.60;99.90;;;;;;5092178;28;20024;-92
2022/03/04 07:55:15;;;;;;;35.10;15.73;;;3.60;99.90;;;;;;5092250;28;20024;-92
2022/03/04 07:57:42;;;;;;;33.90;17.15;;;3.70;99.90;;;;;;5092931;28;20071;-92
2022/03/04 08:00:12;;;;;;;29.05;16.15;;;3.70;99.90;;;;;;5094193;28;20020;-92
2022/03/04 08:02:39;;;;;;;28.10;14.83;;;3.80;99.90;;;;;;5092755;28;20046;-91
2022/03/04 08:05:08;;;;;;;27.35;14.40;;;3.90;99.90;;;;;;5076098;28;20051;-92
2022/03/04 08:07:36;;;;;;;25.48;14.23;;;3.90;99.90;;;;;;5094061;28;20036;-90
2022/03/04 08:10:10;;;;;;;26.70;13.07;;;3.90;99.90;;;;;;5093039;28;20459;-91
2022/03/04 08:12:36;;;;;;;27.23;14.45;;;4.00;99.90;;;;;;5076006;28;20030;-91
2022/03/04 08:15:03;;;;;;;26.27;13.77;;;3.90;99.90;;;;;;5092681;28;20034;-91
2022/03/04 08:17:31;;;;;;;23.23;13.07;;;3.90;99.90;;;;;;5092532;28;20021;-91
2022/03/04 08:19:57;;;;;;;27.65;12.90;;;4.10;99.90;;;;;;5076083;28;20028;-92
2022/03/04 08:22:23;;;;;;;27.67;12.75;;;4.20;99.90;;;;;;5093077;28;20427;-94
2022/03/04 08:24:48;;;;;;;30.52;14.35;;;4.30;99.90;;;;;;5092451;28;20020;-92
2022/03/04 08:27:14;;;;;;;34.50;20.15;;;4.40;99.90;;;;;;5092768;28;20021;-92
2022/03/04 08:29:40;;;;;;;26.95;15.23;;;4.50;99.90;;;;;;5092986;28;20440;-91
2022/03/04 08:32:06;;;;;;;25.48;14.13;;;4.60;99.90;;;;;;5092430;28;20077;-92
2022/03/04 08:34:32;;;;;;;28.58;14.63;;;4.60;99.90;;;;;;5096273;28;20074;-91
2022/03/04 08:36:57;;;;;;;23.52;12.52;;;4.60;99.90;;;;;;5096000;28;20024;-91
2022/03/04 08:39:23;;;;;;;25.13;11.63;;;4.50;99.90;;;;;;5096189;28;20032;-92
2022/03/04 08:41:49;;;;;;;18.02;10.88;;;4.50;99.90;;;;;;5079146;28;20055;-93
2022/03/04 08:44:15;;;;;;;21.05;11.10;;;4.50;99.90;;;;;;5096132;28;20474;-91
2022/03/04 08:46:41;;;;;;;28.38;12.85;;;4.60;99.90;;;;;;5095610;28;20039;-92
2022/03/04 08:49:09;;;;;;;22.33;10.98;;;4.70;99.90;;;;;;5096518;28;20024;-91
2022/03/04 08:51:36;;;;;;;16.88;9.63;;;4.70;99.90;;;;;;5096415;28;20020;-92
2022/03/04 08:54:03;;;;;;;22.77;12.05;;;4.70;99.90;;;;;;5097403;28;20099;-92
2022/03/04 08:56:28;;;;;;;19.42;10.27;;;4.70;99.90;;;;;;5096215;28;20024;-93
2022/03/04 08:58:56;;;;;;;22.63;11.40;;;4.70;99.90;;;;;;5095577;28;20032;-93
2022/03/04 09:01:23;;;;;;;16.63;9.45;;;4.70;99.90;;;;;;5095722;28;20021;-92
2022/03/04 09:03:49;;;;;;;18.08;9.13;;;4.70;99.90;;;;;;5095972;28;20028;-92
2022/03/04 09:06:15;;;;;;;17.30;9.68;;;4.60;99.90;;;;;;5095593;28;20077;-93
2022/03/04 09:08:42;;;;;;;17.95;10.10;;;4.60;99.80;;;;;;5095418;28;20024;-95
2022/03/04 09:11:08;;;;;;;14.18;8.60;;;4.70;99.90;;;;;;5079135;28;20020;-93
2022/03/04 09:13:34;;;;;;;15.25;9.15;;;4.80;99.90;;;;;;5096089;28;20027;-92
2022/03/04 09:16:01;;;;;;;13.85;8.57;;;4.90;99.70;;;;;;5095515;28;20469;-92
2022/03/04 09:18:27;;;;;;;20.50;10.40;;;4.90;99.00;;;;;;5079165;28;20024;-92
2022/03/04 09:20:56;;;;;;;20.83;10.80;;;4.90;99.50;;;;;;5095108;28;20047;-93
2022/03/04 09:23:22;;;;;;;17.42;12.05;;;5.10;99.70;;;;;;5078556;28;20032;-92
2022/03/04 09:25:49;;;;;;;21.08;12.48;;;5.20;99.50;;;;;;5095333;28;20448;-93
2022/03/04 09:28:17;;;;;;;18.42;10.35;;;5.20;99.30;;;;;;5095734;28;20020;-92
2022/03/04 09:30:43;;;;;;;15.30;9.80;;;5.20;98.80;;;;;;5095892;28;20026;-92
2022/03/04 09:33:09;;;;;;;17.20;10.32;;;5.20;98.80;;;;;;5095223;28;20047;-92
2022/03/04 09:35:36;;;;;;;17.90;11.73;;;5.10;98.80;;;;;;5095059;28;20059;-92
2022/03/04 09:38:02;;;;;;;15.38;9.48;;;5.10;99.20;;;;;;5095377;28;20037;-93
2022/03/04 09:40:28;;;;;;;16.80;9.65;;;5.00;99.30;;;;;;5078201;28;20023;-93
2022/03/04 09:42:54;;;;;;;18.50;10.75;;;5.00;98.80;;;;;;5095006;28;20042;-92
2022/03/04 09:45:20;;;;;;;19.08;10.43;;;5.10;99.00;;;;;;5094908;28;20025;-92
2022/03/04 09:47:46;;;;;;;17.80;10.82;;;5.10;99.00;;;;;;5078186;28;20398;-92
2022/03/04 09:50:16;;;;;;;16.02;9.90;;;5.00;98.90;;;;;;5094936;28;20020;-91
2022/03/04 09:52:42;;;;;;;15.85;9.90;;;5.00;98.80;;;;;;5095126;28;20426;-92
2022/03/04 09:55:08;;;;;;;14.02;8.38;;;5.10;98.90;;;;;;5094759;28;20067;-92
2022/03/04 09:57:34;;;;;;;20.45;9.75;;;5.20;98.20;;;;;;5094004;28;20016;-93
2022/03/04 10:00:01;;;;;;;20.33;10.88;;;5.30;98.70;;;;;;5096149;28;20063;-91
2022/03/04 10:02:31;;;;;;;15.65;9.90;;;5.40;98.40;;;;;;5094592;28;20072;-92
2022/03/04 10:04:59;;;;;;;12.30;7.80;;;5.60;98.60;;;;;;5078355;28;20031;-93
2022/03/04 10:07:25;;;;;;;13.75;8.13;;;5.60;98.20;;;;;;5094560;28;20052;-92
2022/03/04 10:09:51;;;;;;;13.98;8.50;;;5.60;97.50;;;;;;5094953;28;20024;-93
2022/03/04 10:12:20;;;;;;;12.55;7.65;;;5.40;97.10;;;;;;5077597;28;20588;-92
2022/03/04 10:15:00;;;;;;;11.60;6.88;;;5.30;96.60;;;;;;5095306;28;20031;-93
2022/03/04 10:17:26;;;;;;;;;;;5.30;97.10;;;;;;5094838;28;20025;-91
2022/03/04 10:19:59;;;;;;;18.33;9.77;;;5.30;96.90;;;;;;5094487;28;19911;-94
2022/03/04 10:22:42;;;;;;;18.27;8.88;;;5.20;97.30;;;;;;5094148;28;20027;-93
2022/03/04 10:25:24;;;;;;;19.42;12.23;;;5.40;97.40;;;;;;5094046;28;20072;-93
2022/03/04 10:27:50;;;;;;;22.08;12.00;;;5.40;97.00;;;;;;5094357;28;20020;-95
2022/03/04 10:30:17;;;;;;;21.92;12.55;;;5.50;96.80;;;;;;5094550;28;20020;-94
2022/03/04 10:32:43;;;;;;;17.40;8.65;;;5.70;97.00;;;;;;5094029;28;20035;-94
2022/03/04 10:35:16;;;;;;;12.07;7.63;;;5.80;96.90;;;;;;5094465;28;20020;-94
2022/03/04 10:37:48;;;;;;;11.75;7.35;;;5.90;96.80;;;;;;5094570;28;20024;-93
2022/03/04 10:40:24;;;;;;;14.55;7.63;;;6.00;96.00;;;;;;5094133;28;20023;-96
2022/03/04 10:43:01;;;;;;;12.10;6.72;;;5.90;95.90;;;;;;5093891;28;20020;-94
2022/03/04 10:45:36;;;;;;;10.57;7.03;;;5.80;95.90;;;;;;5094158;28;20166;-92
2022/03/04 10:48:13;;;;;;;10.30;6.75;;;5.70;96.60;;;;;;5093757;28;20031;-91
2022/03/04 10:50:43;;;;;;;11.93;7.65;;;5.60;96.40;;;;;;5093821;28;20027;-92
2022/03/04 10:53:11;;;;;;;12.43;7.27;;;5.50;96.10;;;;;;5094407;28;20478;-92
2022/03/04 10:55:38;;;;;;;13.45;7.38;;;5.40;96.50;;;;;;5093526;28;20256;-89
2022/03/04 10:58:13;;;;;;;12.55;7.13;;;5.40;97.00;;;;;;5093664;28;20020;-93
2022/03/04 11:00:44;;;;;;;11.68;7.40;;;5.40;96.50;;;;;;5078632;28;20024;-91
2022/03/04 11:03:13;;;;;;;;;;;5.40;96.80;;;;;;5095151;28;20524;-91
2022/03/04 11:05:39;;;;;;;13.57;7.43;;;5.50;96.60;;;;;;5076580;28;19912;-91
2022/03/04 11:08:07;;;;;;;13.88;7.38;;;5.60;96.80;;;;;;5093227;28;20020;-92
2022/03/04 11:10:33;;;;;;;12.18;7.47;;;5.60;96.60;;;;;;5093702;28;20017;-91
2022/03/04 11:12:58;;;;;;;13.82;8.40;;;5.60;96.10;;;;;;5093129;28;20068;-91
2022/03/04 11:15:25;;;;;;;13.48;7.55;;;5.70;96.80;;;;;;5093263;28;20036;-91
2022/03/04 11:17:51;;;;;;;17.05;7.75;;;5.80;97.20;;;;;;5093222;28;20035;-93
2022/03/04 11:20:18;;;;;;;13.13;7.00;;;5.90;96.60;;;;;;5092985;28;20428;-92
2022/03/04 11:22:50;;;;;;;11.52;7.03;;;6.00;96.30;;;;;;5093764;28;20032;-93
2022/03/04 11:25:17;;;;;;;14.90;8.15;;;6.00;96.00;;;;;;5076585;28;20093;-93
2022/03/04 11:27:45;;;;;;;15.38;7.55;;;5.80;96.00;;;;;;5092356;28;20035;-92
2022/03/04 11:30:31;;;;;;;14.38;7.88;;;5.80;96.40;;;;;;5093176;28;20547;-92
2022/03/04 11:33:24;;;;;;;18.08;8.60;;;5.70;96.90;;;;;;5093248;28;20478;-93
2022/03/04 11:36:16;;;;;;;14.32;7.80;;;5.50;96.70;;;;;;5084617;28;20573;-92
2022/03/04 11:38:48;;;;;;;13.02;8.20;;;5.40;97.10;;;;;;5089917;28;20036;-93
2022/03/04 11:41:26;;;;;;;15.55;8.93;;;5.30;98.00;;;;;;5093337;28;20466;-93
2022/03/04 11:44:00;;;;;;;17.67;8.95;;;5.10;99.40;;;;;;5093374;28;20028;-92
2022/03/04 11:46:43;;;;;;;15.40;8.70;;;5.20;99.70;;;;;;5093230;28;20403;-93
2022/03/04 11:49:29;;;;;;;12.50;7.97;;;5.20;99.60;;;;;;5092962;28;20021;-93
2022/03/04 11:52:24;;;;;;;13.27;8.13;;;5.20;99.00;;;;;;5093082;28;20024;-93
2022/03/04 11:54:51;;;;;;;17.73;8.60;;;5.30;98.80;;;;;;5093433;28;20024;-92
2022/03/04 11:57:19;;;;;;;17.27;8.98;;;5.30;98.70;;;;;;5093255;28;20028;-92
2022/03/04 12:00:16;;;;;;;16.52;8.52;;;5.30;98.50;;;;;;5093274;28;20470;-92
2022/03/04 12:02:44;;;;;;;15.10;8.98;;;5.40;98.50;;;;;;5093313;28;20478;-93
2022/03/04 12:05:19;;;;;;;18.35;9.52;;;5.50;98.30;;;;;;5094989;28;20024;-92
2022/03/04 12:07:54;;;;;;;15.05;8.55;;;5.40;98.10;;;;;;5095529;28;20088;-94
2022/03/04 12:10:23;;;;;;;16.10;9.68;;;5.40;98.00;;;;;;5098035;28;20020;-92
2022/03/04 12:13:05;;;;;;;14.52;8.45;;;5.50;98.50;;;;;;5080029;28;20059;-94
2022/03/04 12:15:42;;;;;;;18.33;9.32;;;5.40;97.80;;;;;;5098515;28;20454;-94
2022/03/04 12:18:14;;;;;;;15.82;9.32;;;5.30;97.90;;;;;;5097150;28;20027;-92
2022/03/04 12:20:39;;;;;;;16.13;8.63;;;5.30;98.00;;;;;;5096563;28;20031;-92
2022/03/04 12:23:18;;;;;;;18.65;9.15;;;5.30;98.40;;;;;;5096633;28;20024;-96
2022/03/04 12:26:00;;;;;;;18.25;9.40;;;5.10;98.30;;;;;;5096007;28;20103;-93
2022/03/04 12:28:32;;;;;;;13.85;8.68;;;5.10;98.90;;;;;;5096613;28;20077;-92
2022/03/04 12:31:01;;;;;;;18.02;9.18;;;5.00;99.00;;;;;;5096700;28;20107;-93
2022/03/04 12:33:40;;;;;;;18.05;9.50;;;4.90;99.60;;;;;;5097790;28;20016;-92
2022/03/04 12:36:10;;;;;;;16.98;8.88;;;4.80;99.90;;;;;;5096294;28;20027;-94
2022/03/04 12:38:52;;;;;;;13.73;8.50;;;4.70;99.90;;;;;;5096019;28;20474;-93
2022/03/04 12:41:24;;;;;;;15.70;8.00;;;4.70;99.90;;;;;;5096874;28;20414;-92
2022/03/04 12:43:59;;;;;;;18.10;8.82;;;4.60;99.90;;;;;;5095908;28;20032;-94
2022/03/04 12:46:34;;;;;;;15.55;9.43;;;4.60;99.90;;;;;;5095668;28;20062;-93
2022/03/04 12:49:02;;;;;;;17.02;9.00;;;4.60;99.90;;;;;;5095822;28;20024;-94